| time (UTC) | temp F | wind direction | speed knots | gust knots | rain 1hr in | rain 24hr in | rain mn in | humidity % | barometer mb |
| 20260902093012 | -20 | 84 | 7.0 | 0.0 | 0.00 | 0.00 | 0.00 | 72 | 987.5 |
| 20260902090012 | -20 | 85 | 8.7 | 0.0 | 0.00 | 0.00 | 0.00 | 73 | 987.2 |
| 20260902083012 | -20 | 86 | 7.8 | 0.0 | 0.00 | 0.00 | 0.00 | 74 | 987.2 |
| 20260902080012 | -18 | 85 | 8.7 | 0.0 | 0.00 | 0.00 | 0.00 | 71 | 987.2 |
| 20260902073012 | -20 | 90 | 7.8 | 0.0 | 0.00 | 0.00 | 0.00 | 73 | 987.2 |
| 20260902070012 | -20 | 101 | 7.0 | 0.0 | 0.00 | 0.00 | 0.00 | 73 | 987.2 |
| 20260902063012 | -22 | 77 | 5.2 | 0.0 | 0.00 | 0.00 | 0.00 | 74 | 986.9 |
| 20260902060012 | -20 | 93 | 7.0 | 0.0 | 0.00 | 0.00 | 0.00 | 75 | 987.0 |
| 20260902053012 | -20 | 80 | 4.3 | 0.0 | 0.00 | 0.00 | 0.00 | 76 | 987.1 |
| 20260902050012 | -18 | 73 | 7.0 | 0.0 | 0.00 | 0.00 | 0.00 | 74 | 987.0 |
| 20260902043012 | -20 | 63 | 5.2 | 0.0 | 0.00 | 0.00 | 0.00 | 73 | 986.8 |
| 20260902040012 | -22 | 68 | 6.1 | 0.0 | 0.00 | 0.00 | 0.00 | 76 | 986.7 |
| 20260902033012 | -22 | 86 | 5.2 | 0.0 | 0.00 | 0.00 | 0.00 | 78 | 986.4 |
| 20260902030012 | -22 | 97 | 3.5 | 0.0 | 0.00 | 0.00 | 0.00 | 79 | 986.3 |
| 20260902023012 | -18 | 82 | 7.8 | 0.0 | 0.00 | 0.00 | 0.00 | 78 | 985.9 |
| 20260902020012 | -18 | 98 | 7.0 | 0.0 | 0.00 | 0.00 | 0.00 | 76 | 986.0 |
| 20260902013012 | -18 | 112 | 5.2 | 0.0 | 0.00 | 0.00 | 0.00 | 74 | 986.0 |
| 20260902010012 | -18 | 93 | 7.8 | 0.0 | 0.00 | 0.00 | 0.00 | 78 | 985.6 |
| 20260902003012 | -18 | 113 | 5.2 | 0.0 | 0.00 | 0.00 | 0.00 | 80 | 985.6 |
| 20260902000012 | -13 | 120 | 3.5 | 0.0 | 0.00 | 0.00 | 0.00 | 75 | 985.5 |
| 20260901233012 | -14 | 110 | 3.5 | 0.0 | 0.00 | 0.00 | 0.00 | 78 | 985.1 |
| 20260901230012 | -14 | 106 | 7.8 | 0.0 | 0.00 | 0.00 | 0.00 | 77 | 984.8 |
| 20260901223012 | -16 | 112 | 7.0 | 0.0 | 0.00 | 0.00 | 0.00 | 80 | 984.6 |
| 20260901220012 | -14 | 104 | 7.0 | 0.0 | 0.00 | 0.00 | 0.00 | 77 | 984.3 |
| 20260901213012 | -13 | 112 | 6.1 | 0.0 | 0.00 | 0.00 | 0.00 | 80 | 983.9 |
| 20260901210012 | -11 | 71 | 9.6 | 0.0 | 0.00 | 0.00 | 0.00 | 77 | 983.5 |
| 20260901203012 | -11 | 74 | 7.8 | 0.0 | 0.00 | 0.00 | 0.00 | 76 | 982.8 |
| 20260901200012 | -9 | 76 | 8.7 | 0.0 | 0.00 | 0.00 | 0.00 | 77 | 982.5 |
| 20260901193012 | -7 | 88 | 13.0 | 0.0 | 0.00 | 0.00 | 0.00 | 78 | 982.2 |
| 20260901190012 | -7 | 91 | 15.6 | 0.0 | 0.00 | 0.00 | 0.00 | 78 | 981.5 |
| 20260901183012 | -7 | 86 | 12.2 | 0.0 | 0.00 | 0.00 | 0.00 | 74 | 981.5 |
| 20260901180012 | -9 | 63 | 11.3 | 0.0 | 0.00 | 0.00 | 0.00 | 81 | 981.0 |
| 20260901173012 | -9 | 77 | 10.4 | 0.0 | 0.00 | 0.00 | 0.00 | 84 | 981.2 |
| 20260901170012 | -9 | 74 | 6.1 | 0.0 | 0.00 | 0.00 | 0.00 | 85 | 981.0 |
| 20260901163012 | -9 | 85 | 5.2 | 0.0 | 0.00 | 0.00 | 0.00 | 85 | 980.6 |
| 20260901160012 | -5 | 90 | 12.2 | 0.0 | 0.00 | 0.00 | 0.00 | 83 | 980.1 |
| 20260901153012 | -7 | 94 | 9.6 | 0.0 | 0.00 | 0.00 | 0.00 | 83 | 979.5 |
| 20260901150012 | -7 | 106 | 7.8 | 0.0 | 0.00 | 0.00 | 0.00 | 86 | 979.5 |
| 20260901143012 | -5 | 108 | 7.0 | 0.0 | 0.00 | 0.00 | 0.00 | 85 | 979.0 |
| 20260901140012 | -5 | 126 | 6.1 | 0.0 | 0.00 | 0.00 | 0.00 | 87 | 978.4 |
| 20260901133012 | -5 | 143 | 4.3 | 0.0 | 0.00 | 0.00 | 0.00 | 87 | 978.1 |
| 20260901130012 | -5 | 132 | 5.2 | 0.0 | 0.00 | 0.00 | 0.00 | 85 | 977.7 |
| 20260901123012 | -4 | 105 | 8.7 | 0.0 | 0.00 | 0.00 | 0.00 | 85 | 977.0 |
| 20260901120012 | -4 | 86 | 15.6 | 0.0 | 0.00 | 0.00 | 0.00 | 83 | 976.2 |
| 20260901113012 | -4 | 87 | 14.8 | 0.0 | 0.00 | 0.00 | 0.00 | 84 | 975.9 |
| 20260901110012 | -4 | 82 | 14.8 | 0.0 | 0.00 | 0.00 | 0.00 | 84 | 975.6 |
| 20260901103012 | -4 | 82 | 18.2 | 0.0 | 0.00 | 0.00 | 0.00 | 84 | 974.9 |
| 20260901100012 | -4 | 89 | 17.4 | 0.0 | 0.00 | 0.00 | 0.00 | 84 | 974.4 |